createdAt,value
2023-02-21T00:00:31.908Z,0.00
2023-02-21T00:01:31.906Z,0.00
2023-02-21T00:02:31.890Z,0.00
2023-02-21T00:03:31.901Z,0.00
2023-02-21T00:04:32.004Z,0.00
2023-02-21T00:05:31.945Z,0.00
2023-02-21T00:06:31.885Z,0.00
2023-02-21T00:07:31.858Z,0.00
2023-02-21T00:08:31.929Z,0.00
2023-02-21T00:09:31.856Z,0.00
2023-02-21T00:10:31.842Z,0.00
2023-02-21T00:11:31.825Z,0.00
2023-02-21T00:12:31.835Z,0.00
2023-02-21T00:13:31.817Z,0.00
2023-02-21T00:14:31.799Z,0.00
2023-02-21T00:15:31.801Z,0.00
2023-02-21T00:16:31.812Z,0.00
2023-02-21T00:17:31.783Z,0.00
2023-02-21T00:18:31.764Z,0.00
2023-02-21T00:19:32.763Z,0.00
2023-02-21T00:20:31.762Z,0.00
2023-02-21T00:21:31.745Z,0.00
2023-02-21T00:22:31.730Z,0.00
2023-02-21T00:25:07.723Z,0.00
2023-02-21T00:26:07.699Z,0.00
2023-02-21T00:27:07.688Z,0.00
2023-02-21T00:28:07.682Z,0.00
2023-02-21T00:29:07.685Z,0.00
2023-02-21T00:30:07.752Z,0.00
2023-02-21T00:31:08.774Z,0.00
2023-02-21T00:32:08.737Z,0.00
2023-02-21T00:33:08.854Z,0.00
2023-02-21T00:34:08.732Z,0.00
2023-02-21T00:35:08.724Z,0.00
2023-02-21T00:36:08.714Z,0.00
2023-02-21T00:37:09.562Z,0.00
2023-02-21T00:38:08.714Z,0.00
2023-02-21T00:39:08.702Z,0.00
2023-02-21T00:40:08.673Z,0.00
2023-02-21T00:41:08.664Z,0.00
2023-02-21T00:42:08.667Z,0.00
2023-02-21T00:43:08.639Z,0.00
2023-02-21T00:44:09.644Z,0.00
2023-02-21T00:45:08.638Z,0.00
2023-02-21T00:46:08.683Z,0.00
2023-02-21T00:47:09.568Z,0.00
2023-02-21T00:48:08.625Z,0.00
2023-02-21T00:49:08.601Z,0.00
2023-02-21T00:50:08.608Z,0.00
2023-02-21T00:51:08.580Z,0.00
2023-02-21T00:52:08.577Z,0.00
2023-02-21T00:53:08.595Z,0.00
2023-02-21T00:54:08.570Z,0.00
2023-02-21T00:55:08.551Z,0.00
2023-02-21T00:56:08.549Z,0.00
2023-02-21T00:57:08.535Z,0.00
2023-02-21T00:58:08.530Z,0.00
2023-02-21T00:59:08.527Z,0.00
2023-02-21T01:00:08.503Z,0.00
2023-02-21T01:01:08.587Z,0.00
2023-02-21T01:02:08.509Z,0.00
2023-02-21T01:03:08.476Z,0.00
2023-02-21T01:04:09.491Z,0.00
2023-02-21T01:05:08.470Z,0.00
2023-02-21T01:06:08.465Z,0.00
2023-02-21T01:07:08.472Z,0.00
2023-02-21T01:08:08.470Z,0.00
2023-02-21T01:09:08.440Z,0.00
2023-02-21T01:10:08.441Z,0.00
2023-02-21T01:11:08.434Z,0.00
2023-02-21T01:12:08.438Z,0.00
2023-02-21T01:13:08.415Z,0.00
2023-02-21T01:14:08.410Z,0.00
2023-02-21T01:15:09.149Z,0.00
2023-02-21T01:16:08.412Z,0.00
2023-02-21T01:17:13.327Z,0.00
2023-02-21T01:18:10.380Z,0.00
2023-02-21T01:19:08.375Z,0.00
2023-02-21T01:20:08.361Z,0.00
2023-02-21T01:21:08.356Z,0.00
2023-02-21T01:22:08.363Z,0.00
2023-02-21T01:23:08.338Z,0.00
2023-02-21T01:24:08.336Z,0.00
2023-02-21T01:25:08.318Z,0.00
2023-02-21T01:26:08.315Z,0.00
2023-02-21T01:27:08.315Z,0.00
2023-02-21T01:28:08.300Z,0.00
2023-02-21T01:29:08.289Z,0.00
2023-02-21T01:30:09.104Z,0.00
2023-02-21T01:31:08.294Z,0.00
2023-02-21T01:32:08.289Z,0.00
2023-02-21T01:33:08.261Z,0.00
2023-02-21T01:34:08.253Z,0.00
2023-02-21T01:35:08.250Z,0.00
2023-02-21T01:36:08.237Z,0.00
2023-02-21T01:37:08.236Z,0.00
2023-02-21T01:38:08.218Z,0.00
2023-02-21T01:39:08.205Z,0.00
2023-02-21T01:40:08.208Z,0.00
2023-02-21T01:41:08.202Z,0.00
2023-02-21T01:42:08.204Z,0.00
2023-02-21T01:43:08.177Z,0.00
2023-02-21T01:44:08.172Z,0.00
2023-02-21T01:45:08.169Z,0.00
2023-02-21T01:46:08.183Z,0.00
2023-02-21T01:47:08.151Z,0.00
2023-02-21T01:48:08.149Z,0.00
2023-02-21T01:49:08.128Z,0.00
2023-02-21T01:50:08.128Z,0.00
2023-02-21T01:51:08.110Z,0.00
2023-02-21T01:52:08.115Z,0.00
2023-02-21T01:53:08.092Z,0.00
2023-02-21T01:54:08.089Z,0.00
2023-02-21T01:55:08.074Z,0.00
2023-02-21T01:56:08.080Z,0.00
2023-02-21T01:57:08.059Z,0.00
2023-02-21T01:58:08.052Z,0.00
2023-02-21T01:59:08.053Z,0.00
2023-02-21T02:00:08.038Z,0.00
2023-02-21T02:01:08.095Z,0.00
2023-02-21T02:02:08.028Z,0.00
2023-02-21T02:03:08.029Z,0.00
2023-02-21T02:04:08.039Z,0.00
2023-02-21T02:05:08.005Z,0.00
2023-02-21T02:06:08.003Z,0.00
2023-02-21T02:07:07.992Z,0.00
2023-02-21T02:08:07.973Z,0.00
2023-02-21T02:09:07.972Z,0.00
2023-02-21T02:10:07.977Z,0.00
2023-02-21T02:11:07.981Z,0.00
2023-02-21T02:12:07.943Z,0.00
2023-02-21T02:13:07.933Z,0.00
2023-02-21T02:14:07.927Z,0.00
2023-02-21T02:15:07.926Z,0.00
2023-02-21T02:16:07.957Z,0.00
2023-02-21T02:17:07.900Z,0.00
2023-02-21T02:18:07.894Z,0.00
2023-02-21T02:19:07.952Z,0.00
2023-02-21T02:20:07.884Z,0.00
2023-02-21T02:21:08.667Z,0.00
2023-02-21T02:22:07.869Z,0.00
2023-02-21T02:23:07.856Z,0.00
2023-02-21T02:24:07.881Z,0.00
2023-02-21T02:25:07.841Z,0.00
2023-02-21T02:26:07.834Z,0.00
2023-02-21T02:27:07.823Z,0.00
2023-02-21T02:28:07.822Z,0.00
2023-02-21T02:29:07.821Z,0.00
2023-02-21T02:30:07.880Z,0.00
2023-02-21T02:31:07.907Z,0.00
2023-02-21T02:32:07.960Z,0.00
2023-02-21T02:33:07.783Z,0.00
2023-02-21T02:34:07.778Z,0.00
2023-02-21T02:35:07.820Z,0.00
2023-02-21T02:36:07.773Z,0.00
2023-02-21T02:37:07.748Z,0.00
2023-02-21T02:38:07.738Z,0.00
2023-02-21T02:39:07.744Z,0.00
2023-02-21T02:40:07.725Z,0.00
2023-02-21T02:41:07.712Z,0.00
2023-02-21T02:42:07.707Z,0.00
2023-02-21T02:43:07.709Z,0.00
2023-02-21T02:44:07.698Z,0.00
2023-02-21T02:45:08.678Z,0.00
2023-02-21T02:46:07.738Z,0.00
2023-02-21T02:47:07.661Z,0.00
2023-02-21T02:48:07.663Z,0.00
2023-02-21T02:49:07.644Z,0.00
2023-02-21T02:50:07.644Z,0.00
2023-02-21T02:51:07.634Z,0.00
2023-02-21T02:52:07.638Z,0.00
2023-02-21T02:53:07.613Z,0.00
2023-02-21T02:54:07.611Z,0.00
2023-02-21T02:55:07.604Z,0.00
2023-02-21T02:56:07.603Z,0.00
2023-02-21T02:57:07.608Z,0.00
2023-02-21T02:58:07.582Z,0.00
2023-02-21T02:59:07.583Z,0.00
2023-02-21T03:00:07.576Z,0.00
2023-02-21T03:01:07.569Z,0.00
2023-02-21T03:02:07.565Z,0.00
2023-02-21T03:03:07.569Z,0.00
2023-02-21T03:04:07.531Z,0.00
2023-02-21T03:05:07.524Z,0.00
2023-02-21T03:06:07.514Z,0.00
2023-02-21T03:07:07.580Z,0.00
2023-02-21T03:08:07.522Z,0.00
2023-02-21T03:09:07.504Z,0.00
2023-02-21T03:10:08.065Z,0.00
2023-02-21T03:11:07.476Z,0.00
2023-02-21T03:12:07.476Z,0.00
2023-02-21T03:13:08.059Z,0.00
2023-02-21T03:14:07.456Z,0.00
2023-02-21T03:15:07.441Z,0.00
2023-02-21T03:16:07.533Z,0.00
2023-02-21T03:17:07.423Z,0.00
2023-02-21T03:18:08.096Z,0.00
2023-02-21T03:19:07.414Z,0.00
2023-02-21T03:20:07.407Z,0.00
2023-02-21T03:21:07.402Z,0.00
2023-02-21T03:22:07.402Z,0.00
2023-02-21T03:23:07.382Z,0.00
2023-02-21T03:24:07.375Z,0.00
2023-02-21T03:25:07.361Z,0.00
2023-02-21T03:26:07.368Z,0.00
2023-02-21T03:27:07.366Z,0.00
2023-02-21T03:28:09.211Z,0.00
2023-02-21T03:29:07.332Z,0.00
2023-02-21T03:30:09.191Z,0.00
2023-02-21T03:31:07.354Z,0.00
2023-02-21T03:32:07.344Z,0.00
2023-02-21T03:33:07.312Z,0.00
2023-02-21T03:34:07.284Z,0.00
2023-02-21T03:35:07.290Z,0.00
2023-02-21T03:36:07.290Z,0.00
2023-02-21T03:37:07.275Z,0.00
2023-02-21T03:38:07.264Z,0.00
2023-02-21T03:39:07.286Z,0.00
2023-02-21T03:40:07.243Z,0.00
2023-02-21T03:41:07.226Z,0.00
2023-02-21T03:42:07.218Z,0.00
2023-02-21T03:43:07.252Z,0.00
2023-02-21T03:44:07.202Z,0.00
2023-02-21T03:45:07.198Z,0.00
2023-02-21T03:46:07.187Z,0.00
2023-02-21T03:47:07.176Z,0.00
2023-02-21T03:48:07.183Z,0.00
2023-02-21T03:49:07.167Z,0.00
2023-02-21T03:50:07.154Z,0.00
2023-02-21T03:51:07.148Z,0.00
2023-02-21T03:52:07.145Z,0.00
2023-02-21T03:53:09.531Z,0.00
2023-02-21T03:54:08.120Z,0.00
2023-02-21T03:55:07.107Z,0.00
2023-02-21T03:56:07.103Z,0.00
2023-02-21T03:57:07.103Z,0.00
2023-02-21T03:58:07.101Z,0.00
2023-02-21T03:59:07.132Z,0.00
2023-02-21T04:00:07.079Z,0.00
2023-02-21T04:01:07.128Z,0.00
2023-02-21T04:02:07.144Z,0.00
2023-02-21T04:03:07.050Z,0.00
2023-02-21T04:04:08.042Z,0.00
2023-02-21T04:05:07.032Z,0.00
2023-02-21T04:06:07.025Z,0.00
2023-02-21T04:07:07.021Z,0.00
2023-02-21T04:08:07.042Z,0.00
2023-02-21T04:09:07.001Z,0.00
2023-02-21T04:10:08.012Z,0.00
2023-02-21T04:11:06.990Z,0.00
2023-02-21T04:12:06.977Z,0.00
2023-02-21T04:13:06.980Z,0.00
2023-02-21T04:14:06.962Z,0.00
2023-02-21T04:15:06.957Z,0.00
2023-02-21T04:16:06.996Z,0.00
2023-02-21T04:17:06.938Z,0.00
2023-02-21T04:18:06.942Z,0.00
2023-02-21T04:19:06.928Z,0.00
2023-02-21T04:20:06.918Z,0.00
2023-02-21T04:21:06.909Z,0.00
2023-02-21T04:22:06.910Z,0.00
2023-02-21T04:23:06.886Z,0.00
2023-02-21T04:24:07.875Z,0.00
2023-02-21T04:25:06.877Z,0.00
2023-02-21T04:26:06.861Z,0.00
2023-02-21T04:27:06.862Z,0.00
2023-02-21T04:28:06.862Z,0.00
2023-02-21T04:29:06.872Z,0.00
2023-02-21T04:30:06.850Z,0.00
2023-02-21T04:31:06.845Z,0.00
2023-02-21T04:32:06.935Z,0.00
2023-02-21T04:33:06.820Z,0.00
2023-02-21T04:34:11.978Z,0.00
2023-02-21T04:35:08.792Z,0.00
2023-02-21T04:36:06.782Z,0.00
2023-02-21T04:37:06.800Z,0.00
2023-02-21T04:38:06.774Z,0.00
2023-02-21T04:39:06.763Z,0.00
2023-02-21T04:40:06.744Z,0.00
2023-02-21T04:41:06.741Z,0.00
2023-02-21T04:42:06.748Z,0.00
2023-02-21T04:43:06.757Z,0.00
2023-02-21T04:44:06.725Z,0.00
2023-02-21T04:45:06.714Z,0.00
2023-02-21T04:46:06.774Z,0.00
2023-02-21T04:47:06.713Z,0.00
2023-02-21T04:48:07.582Z,0.00
2023-02-21T04:49:06.685Z,0.00
2023-02-21T04:50:06.679Z,0.00
2023-02-21T04:51:15.068Z,0.00
2023-02-21T04:52:08.661Z,0.00
2023-02-21T04:53:06.643Z,0.00
2023-02-21T04:54:06.644Z,0.00
2023-02-21T04:55:06.641Z,0.00
2023-02-21T04:56:06.628Z,0.00
2023-02-21T04:57:06.618Z,0.00
2023-02-21T04:58:06.630Z,0.00
2023-02-21T04:59:06.597Z,0.00
2023-02-21T05:00:06.599Z,0.00
2023-02-21T05:01:06.608Z,0.00
2023-02-21T05:02:06.589Z,0.00
2023-02-21T05:03:07.232Z,0.00
2023-02-21T05:04:06.593Z,0.00
2023-02-21T05:05:06.600Z,0.00
2023-02-21T05:06:07.352Z,0.00
2023-02-21T05:07:06.530Z,0.00
2023-02-21T05:08:06.539Z,0.00
2023-02-21T05:09:06.516Z,0.00
2023-02-21T05:10:07.129Z,0.00
2023-02-21T05:11:06.509Z,0.00
2023-02-21T05:12:06.493Z,0.00
2023-02-21T05:13:06.487Z,0.00
2023-02-21T05:14:06.505Z,0.00
2023-02-21T05:15:06.464Z,0.00
2023-02-21T05:16:06.462Z,0.00
2023-02-21T05:17:06.447Z,0.00
2023-02-21T05:18:07.448Z,0.00
2023-02-21T05:19:06.471Z,0.00
2023-02-21T05:20:06.427Z,0.00
2023-02-21T05:21:06.418Z,0.00
2023-02-21T05:22:06.425Z,0.00
2023-02-21T05:23:13.308Z,0.00
2023-02-21T05:24:08.396Z,0.00
2023-02-21T05:25:06.390Z,0.00
2023-02-21T05:26:06.377Z,0.00
2023-02-21T05:27:06.373Z,0.00
2023-02-21T05:28:07.628Z,0.00
2023-02-21T05:29:06.353Z,0.00
2023-02-21T05:30:06.361Z,0.00
2023-02-21T05:31:06.532Z,0.00
2023-02-21T05:32:13.335Z,0.00
2023-02-21T05:33:07.240Z,0.00
2023-02-21T05:34:39.297Z,0.00
2023-02-21T05:35:07.207Z,0.00
2023-02-21T05:36:06.286Z,0.00
2023-02-21T05:37:07.299Z,0.00
2023-02-21T05:38:06.287Z,0.00
2023-02-21T05:39:08.233Z,0.00
2023-02-21T05:40:06.276Z,0.00
2023-02-21T05:41:06.269Z,0.00
2023-02-21T05:42:06.250Z,0.00
2023-02-21T05:43:06.243Z,0.00
2023-02-21T05:44:06.241Z,0.00
2023-02-21T05:45:06.229Z,0.00
2023-02-21T05:46:06.339Z,0.00
2023-02-21T05:47:06.217Z,0.00
2023-02-21T05:48:06.197Z,0.00
2023-02-21T05:49:06.219Z,0.00
2023-02-21T05:50:06.195Z,0.00
2023-02-21T05:51:06.190Z,0.00
2023-02-21T05:52:06.173Z,0.00
2023-02-21T05:53:06.194Z,0.00
2023-02-21T05:54:06.170Z,0.00
2023-02-21T05:55:06.150Z,0.00
2023-02-21T05:56:06.146Z,0.00
2023-02-21T05:57:06.142Z,0.00
2023-02-21T05:58:06.776Z,0.00
2023-02-21T05:59:06.128Z,0.00
2023-02-21T06:00:06.113Z,0.00
2023-02-21T06:01:06.099Z,0.00
2023-02-21T06:02:06.131Z,0.00
2023-02-21T06:03:06.129Z,0.00
2023-02-21T06:04:06.773Z,0.00
2023-02-21T06:05:06.084Z,0.00
2023-02-21T06:06:06.081Z,0.00
2023-02-21T06:07:06.125Z,0.00
2023-02-21T06:08:10.726Z,0.00
2023-02-21T06:09:07.812Z,0.00
2023-02-21T06:10:09.770Z,0.00
2023-02-21T06:11:27.386Z,0.00
2023-02-21T06:12:25.241Z,0.00
2023-02-21T06:13:06.697Z,0.00
2023-02-21T06:14:07.768Z,0.00
2023-02-21T06:15:07.763Z,0.00
2023-02-21T06:16:07.827Z,0.00
2023-02-21T06:17:05.969Z,0.00
2023-02-21T06:18:07.775Z,0.00
2023-02-21T06:19:09.315Z,0.00
2023-02-21T06:20:05.953Z,0.00
2023-02-21T06:21:05.936Z,0.00
2023-02-21T06:22:05.928Z,0.00
2023-02-21T06:23:05.947Z,0.00
2023-02-21T06:24:05.914Z,0.00
2023-02-21T06:25:05.906Z,0.00
2023-02-21T06:26:05.900Z,5.62
2023-02-21T06:27:05.899Z,5.62
2023-02-21T06:28:05.885Z,5.62
2023-02-21T06:29:05.870Z,5.62
2023-02-21T06:30:05.905Z,5.62
2023-02-21T06:31:05.902Z,5.62
2023-02-21T06:32:05.882Z,5.62
2023-02-21T06:33:05.847Z,5.62
2023-02-21T06:34:05.877Z,5.62
2023-02-21T06:35:05.847Z,5.62
2023-02-21T06:36:05.823Z,5.62
2023-02-21T06:37:06.692Z,5.62
2023-02-21T06:38:05.806Z,5.62
2023-02-21T06:39:05.803Z,5.62
2023-02-21T06:40:05.805Z,5.62
2023-02-21T06:41:05.792Z,11.25
2023-02-21T06:42:05.779Z,11.25
2023-02-21T06:43:05.765Z,11.25
2023-02-21T06:44:05.761Z,11.25
2023-02-21T06:45:05.757Z,11.25
2023-02-21T06:46:06.755Z,11.25
2023-02-21T06:47:05.752Z,11.25
2023-02-21T06:48:05.740Z,16.88
2023-02-21T06:49:05.728Z,16.88
2023-02-21T06:50:05.720Z,16.88
2023-02-21T06:51:05.707Z,16.88
2023-02-21T06:52:05.698Z,16.88
2023-02-21T06:53:08.166Z,16.88
2023-02-21T06:54:05.692Z,16.88
2023-02-21T06:55:07.293Z,22.50
2023-02-21T06:56:06.282Z,22.50
2023-02-21T06:57:05.678Z,22.50
2023-02-21T06:58:05.662Z,22.50
2023-02-21T06:59:05.649Z,22.50
2023-02-21T07:00:05.657Z,22.50
2023-02-21T07:01:05.637Z,22.50
2023-02-21T07:02:05.621Z,22.50
2023-02-21T07:03:05.613Z,28.12
2023-02-21T07:04:05.601Z,28.12
2023-02-21T07:05:05.617Z,28.12
2023-02-21T07:06:05.590Z,28.12
2023-02-21T07:07:05.579Z,28.12
2023-02-21T07:08:05.588Z,28.12
2023-02-21T07:09:05.567Z,28.12
2023-02-21T07:10:05.554Z,28.12
2023-02-21T07:11:05.545Z,28.12
2023-02-21T07:12:05.540Z,28.12
2023-02-21T07:13:05.532Z,28.12
2023-02-21T07:14:05.532Z,33.75
2023-02-21T07:15:05.520Z,39.38
2023-02-21T07:16:05.565Z,39.38
2023-02-21T07:17:06.208Z,39.38
2023-02-21T07:18:06.495Z,39.38
2023-02-21T07:19:05.500Z,39.38
2023-02-21T07:20:05.485Z,39.38
2023-02-21T07:21:05.470Z,33.75
2023-02-21T07:22:05.463Z,33.75
2023-02-21T07:23:05.458Z,39.38
2023-02-21T07:24:05.458Z,39.38
2023-02-21T07:25:05.438Z,39.38
2023-02-21T07:26:05.437Z,39.38
2023-02-21T07:27:06.215Z,39.38
2023-02-21T07:28:05.421Z,45.00
2023-02-21T07:29:05.475Z,39.38
2023-02-21T07:30:05.507Z,45.00
2023-02-21T07:31:06.243Z,39.38
2023-02-21T07:32:05.410Z,45.00
2023-02-21T07:33:05.799Z,45.00
2023-02-21T07:34:05.380Z,50.62
2023-02-21T07:35:05.388Z,45.00
2023-02-21T07:36:05.354Z,45.00
2023-02-21T07:37:05.353Z,50.62
2023-02-21T07:38:05.348Z,50.62
2023-02-21T07:39:05.333Z,45.00
2023-02-21T07:40:05.336Z,50.62
2023-02-21T07:41:05.322Z,56.25
2023-02-21T07:42:05.323Z,61.88
2023-02-21T07:43:05.321Z,61.88
2023-02-21T07:44:05.318Z,67.50
2023-02-21T07:45:05.299Z,73.12
2023-02-21T07:46:05.343Z,78.75
2023-02-21T07:47:05.283Z,84.38
2023-02-21T07:48:05.263Z,90.00
2023-02-21T07:49:05.258Z,84.38
2023-02-21T07:50:05.248Z,95.62
2023-02-21T07:51:05.248Z,101.25
2023-02-21T07:52:05.271Z,106.88
2023-02-21T07:53:05.231Z,106.88
2023-02-21T07:54:05.213Z,101.25
2023-02-21T07:55:05.221Z,101.25
2023-02-21T07:56:05.205Z,106.88
2023-02-21T07:57:05.196Z,112.50
2023-02-21T07:58:05.190Z,118.12
2023-02-21T07:59:05.184Z,118.12
2023-02-21T08:00:05.180Z,118.12
2023-02-21T08:01:05.174Z,123.75
2023-02-21T08:02:05.225Z,129.38
2023-02-21T08:03:05.170Z,135.00
2023-02-21T08:04:05.135Z,135.00
2023-02-21T08:05:05.212Z,140.62
2023-02-21T08:06:05.168Z,151.88
2023-02-21T08:07:05.131Z,163.12
2023-02-21T08:08:05.115Z,157.50
2023-02-21T08:09:05.109Z,163.12
2023-02-21T08:10:05.099Z,163.12
2023-02-21T08:11:05.090Z,157.50
2023-02-21T08:12:05.074Z,168.75
2023-02-21T08:13:06.079Z,180.00
2023-02-21T08:14:06.059Z,191.25
2023-02-21T08:15:05.057Z,191.25
2023-02-21T08:16:05.109Z,196.88
2023-02-21T08:17:05.045Z,196.88
2023-02-21T08:18:05.051Z,202.50
2023-02-21T08:19:05.026Z,191.25
2023-02-21T08:20:05.002Z,180.00
2023-02-21T08:21:06.006Z,180.00
2023-02-21T08:22:04.999Z,191.25
2023-02-21T08:23:04.992Z,180.00
2023-02-21T08:24:05.794Z,180.00
2023-02-21T08:25:04.972Z,174.38
2023-02-21T08:26:04.966Z,180.00
2023-02-21T08:27:04.958Z,180.00
2023-02-21T08:28:04.952Z,191.25
2023-02-21T08:29:04.943Z,196.88
2023-02-21T08:30:04.920Z,196.88
2023-02-21T08:31:04.953Z,208.12
2023-02-21T08:32:04.950Z,208.12
2023-02-21T08:33:04.904Z,208.12
2023-02-21T08:34:04.986Z,202.50
2023-02-21T08:35:04.913Z,213.75
2023-02-21T08:36:04.876Z,208.12
2023-02-21T08:37:04.870Z,208.12
2023-02-21T08:38:04.862Z,219.38
2023-02-21T08:39:04.862Z,225.00
2023-02-21T08:40:04.869Z,230.62
2023-02-21T08:41:04.844Z,230.62
2023-02-21T08:42:04.834Z,236.25
2023-02-21T08:43:04.822Z,247.50
2023-02-21T08:44:04.827Z,253.12
2023-02-21T08:45:06.749Z,264.38
2023-02-21T08:46:06.799Z,275.62
2023-02-21T08:47:05.303Z,270.00
2023-02-21T08:48:06.305Z,275.62
2023-02-21T08:49:04.832Z,275.62
2023-02-21T08:50:06.740Z,275.62
2023-02-21T08:51:05.376Z,286.88
2023-02-21T08:52:05.744Z,281.25
2023-02-21T08:53:05.314Z,275.62
2023-02-21T08:54:04.743Z,258.75
2023-02-21T08:55:04.739Z,253.12
2023-02-21T08:56:04.726Z,264.38
2023-02-21T08:57:04.709Z,270.00
2023-02-21T08:58:07.296Z,258.75
2023-02-21T08:59:04.768Z,253.12
2023-02-21T09:00:05.301Z,253.12
2023-02-21T09:01:04.716Z,275.62
2023-02-21T09:02:04.733Z,281.25
2023-02-21T09:03:04.675Z,292.50
2023-02-21T09:04:04.666Z,303.75
2023-02-21T09:05:04.645Z,309.38
2023-02-21T09:06:04.645Z,320.62
2023-02-21T09:07:04.628Z,326.25
2023-02-21T09:08:04.635Z,337.50
2023-02-21T09:09:04.628Z,315.00
2023-02-21T09:10:05.312Z,315.00
2023-02-21T09:11:04.647Z,315.00
2023-02-21T09:12:04.595Z,315.00
2023-02-21T09:13:04.590Z,309.38
2023-02-21T09:14:04.579Z,320.62
2023-02-21T09:15:04.567Z,315.00
2023-02-21T09:16:04.610Z,320.62
2023-02-21T09:17:04.571Z,320.62
2023-02-21T09:18:04.547Z,337.50
2023-02-21T09:19:04.560Z,337.50
2023-02-21T09:20:04.535Z,343.12
2023-02-21T09:21:04.538Z,376.88
2023-02-21T09:22:04.543Z,337.50
2023-02-21T09:23:05.320Z,348.75
2023-02-21T09:24:04.544Z,337.50
2023-02-21T09:25:04.498Z,326.25
2023-02-21T09:26:04.504Z,343.12
2023-02-21T09:27:04.506Z,343.12
2023-02-21T09:28:04.507Z,331.88
2023-02-21T09:29:04.470Z,348.75
2023-02-21T09:30:04.503Z,354.38
2023-02-21T09:31:04.455Z,343.12
2023-02-21T09:32:05.597Z,337.50
2023-02-21T09:34:13.531Z,320.62
2023-02-21T09:35:10.889Z,309.38
2023-02-21T09:36:12.004Z,303.75
2023-02-21T09:37:12.024Z,303.75
2023-02-21T09:38:11.964Z,309.38
2023-02-21T09:39:12.051Z,309.38
2023-02-21T09:40:12.208Z,303.75
2023-02-21T09:41:11.944Z,303.75
2023-02-21T09:42:12.017Z,298.12
2023-02-21T09:43:11.946Z,309.38
2023-02-21T09:44:11.923Z,309.38
2023-02-21T09:45:12.621Z,320.62
2023-02-21T09:46:12.718Z,331.88
2023-02-21T09:47:11.883Z,309.38
2023-02-21T09:48:11.882Z,320.62
2023-02-21T09:49:11.874Z,320.62
2023-02-21T09:50:13.230Z,303.75
2023-02-21T09:51:13.186Z,298.12
2023-02-21T09:52:11.852Z,298.12
2023-02-21T09:53:44.043Z,298.12
2023-02-21T09:54:11.820Z,292.50
2023-02-21T09:55:11.809Z,270.00
2023-02-21T09:56:11.790Z,264.38
2023-02-21T09:57:12.792Z,253.12
2023-02-21T09:58:11.784Z,264.38
2023-02-21T09:59:11.800Z,270.00
2023-02-21T10:00:11.760Z,275.62
2023-02-21T10:01:11.819Z,286.88
2023-02-21T10:02:11.751Z,275.62
2023-02-21T10:03:12.613Z,258.75
2023-02-21T10:04:11.731Z,253.12
2023-02-21T10:05:11.751Z,247.50
2023-02-21T10:06:11.749Z,247.50
2023-02-21T10:07:11.720Z,253.12
2023-02-21T10:08:11.699Z,258.75
2023-02-21T10:09:11.691Z,270.00
2023-02-21T10:10:11.682Z,281.25
2023-02-21T10:11:11.677Z,292.50
2023-02-21T10:12:11.673Z,292.50
2023-02-21T10:13:11.658Z,298.12
2023-02-21T10:14:11.636Z,303.75
2023-02-21T10:15:12.665Z,303.75
2023-02-21T10:16:11.713Z,303.75
2023-02-21T10:17:11.636Z,298.12
2023-02-21T10:18:11.642Z,298.12
2023-02-21T10:19:11.618Z,298.12
2023-02-21T10:20:11.603Z,298.12
2023-02-21T10:21:11.603Z,292.50
2023-02-21T10:22:11.579Z,281.25
2023-02-21T10:23:11.574Z,247.50
2023-02-21T10:24:13.149Z,241.88
2023-02-21T10:25:11.563Z,247.50
2023-02-21T10:26:11.547Z,253.12
2023-02-21T10:27:11.545Z,241.88
2023-02-21T10:28:12.546Z,208.12
2023-02-21T10:29:11.529Z,213.75
2023-02-21T10:30:11.605Z,225.00
2023-02-21T10:31:11.593Z,225.00
2023-02-21T10:32:11.542Z,213.75
2023-02-21T10:33:11.516Z,236.25
2023-02-21T10:34:11.498Z,253.12
2023-02-21T10:35:11.486Z,258.75
2023-02-21T10:36:12.480Z,258.75
2023-02-21T10:37:11.519Z,270.00
2023-02-21T10:38:11.457Z,275.62
2023-02-21T10:39:11.451Z,281.25
2023-02-21T10:41:18.881Z,292.50
2023-02-21T10:42:18.784Z,298.12
2023-02-21T10:43:18.774Z,275.62
2023-02-21T10:44:18.760Z,258.75
2023-02-21T10:45:19.843Z,264.38
2023-02-21T10:46:19.899Z,275.62
2023-02-21T10:47:19.839Z,258.75
2023-02-21T10:48:19.830Z,258.75
2023-02-21T10:49:19.813Z,270.00
2023-02-21T10:50:19.812Z,270.00
2023-02-21T10:51:19.783Z,264.38
2023-02-21T10:52:20.822Z,270.00
2023-02-21T10:53:19.824Z,286.88
2023-02-21T10:54:19.777Z,286.88
2023-02-21T10:55:31.812Z,286.88
2023-02-21T10:56:21.805Z,281.25
2023-02-21T10:57:19.760Z,264.38
2023-02-21T10:58:19.745Z,258.75
2023-02-21T10:59:20.228Z,258.75
2023-02-21T11:00:20.754Z,270.00
2023-02-21T11:01:25.262Z,292.50
2023-02-21T11:02:21.261Z,315.00
2023-02-21T11:03:19.719Z,331.88
2023-02-21T11:04:19.691Z,348.75
2023-02-21T11:05:19.721Z,365.62
2023-02-21T11:06:19.676Z,365.62
2023-02-21T11:07:19.670Z,371.25
2023-02-21T11:08:20.664Z,371.25
2023-02-21T11:09:19.656Z,343.12
2023-02-21T11:10:20.658Z,337.50
2023-02-21T11:11:19.639Z,343.12
2023-02-21T11:12:20.171Z,337.50
2023-02-21T11:13:19.625Z,337.50
2023-02-21T11:14:19.611Z,354.38
2023-02-21T11:16:26.180Z,365.62
2023-02-21T11:17:26.165Z,365.62
2023-02-21T11:18:26.138Z,376.88
2023-02-21T11:19:26.128Z,376.88
2023-02-21T11:20:26.129Z,371.25
2023-02-21T11:21:26.136Z,365.62
2023-02-21T11:22:26.121Z,365.62
2023-02-21T11:23:26.122Z,365.62
2023-02-21T11:24:26.117Z,376.88
2023-02-21T11:25:26.100Z,376.88
2023-02-21T11:26:26.313Z,371.25
2023-02-21T11:27:26.074Z,376.88
2023-02-21T11:28:26.802Z,343.12
2023-02-21T11:29:27.251Z,360.00
2023-02-21T11:30:27.178Z,348.75
2023-02-21T11:31:27.187Z,326.25
2023-02-21T11:32:27.145Z,348.75
2023-02-21T11:33:27.127Z,371.25
2023-02-21T11:34:27.138Z,360.00
2023-02-21T11:35:27.119Z,343.12
2023-02-21T11:36:27.094Z,365.62
2023-02-21T11:37:27.103Z,348.75
2023-02-21T11:38:28.443Z,343.12
2023-02-21T11:39:28.088Z,348.75
2023-02-21T11:40:27.063Z,343.12
2023-02-21T11:41:27.080Z,348.75
2023-02-21T11:42:27.081Z,331.88
2023-02-21T11:43:27.116Z,320.62
2023-02-21T11:44:27.049Z,303.75
2023-02-21T11:45:27.045Z,315.00
2023-02-21T11:46:27.078Z,320.62
2023-02-21T11:47:29.875Z,298.12
2023-02-21T11:48:30.900Z,309.38
2023-02-21T11:49:26.994Z,315.00
2023-02-21T11:50:27.042Z,303.75
2023-02-21T11:51:26.985Z,298.12
2023-02-21T11:52:27.897Z,309.38
2023-02-21T11:53:26.966Z,315.00
2023-02-21T11:54:26.954Z,303.75
2023-02-21T11:55:26.961Z,303.75
2023-02-21T11:56:27.027Z,315.00
2023-02-21T11:57:26.931Z,309.38
2023-02-21T11:58:26.935Z,292.50
2023-02-21T11:59:26.924Z,292.50
2023-02-21T12:00:26.892Z,309.38
2023-02-21T12:01:26.899Z,298.12
2023-02-21T12:02:26.925Z,303.75
2023-02-21T12:03:26.873Z,303.75
2023-02-21T12:04:26.882Z,309.38
2023-02-21T12:05:26.862Z,298.12
2023-02-21T12:06:26.857Z,298.12
2023-02-21T12:07:26.849Z,286.88
2023-02-21T12:08:26.870Z,281.25
2023-02-21T12:09:26.847Z,275.62
2023-02-21T12:10:26.837Z,286.88
2023-02-21T12:11:28.395Z,286.88
2023-02-21T12:12:26.826Z,275.62
2023-02-21T12:13:27.402Z,275.62
2023-02-21T12:14:26.802Z,286.88
2023-02-21T12:15:26.791Z,270.00
2023-02-21T12:16:26.771Z,275.62
2023-02-21T12:17:26.785Z,264.38
2023-02-21T12:18:28.354Z,264.38
2023-02-21T12:19:26.782Z,275.62
2023-02-21T12:20:26.788Z,264.38
2023-02-21T12:21:26.742Z,258.75
2023-02-21T12:22:26.740Z,253.12
2023-02-21T12:23:26.722Z,247.50
2023-02-21T12:24:26.737Z,247.50
2023-02-21T12:25:26.724Z,258.75
2023-02-21T12:26:26.709Z,253.12
2023-02-21T12:27:26.691Z,247.50
2023-02-21T12:28:26.688Z,241.88
2023-02-21T12:29:26.672Z,230.62
2023-02-21T12:30:26.695Z,219.38
2023-02-21T12:31:26.870Z,208.12
2023-02-21T12:32:26.652Z,202.50
2023-02-21T12:33:26.648Z,202.50
2023-02-21T12:34:27.405Z,191.25
2023-02-21T12:35:26.663Z,191.25
2023-02-21T12:36:27.346Z,191.25
2023-02-21T12:37:36.442Z,185.62
2023-02-21T12:38:30.347Z,191.25
2023-02-21T12:39:31.766Z,185.62
2023-02-21T12:40:26.593Z,180.00
2023-02-21T12:41:26.624Z,180.00
2023-02-21T12:42:26.762Z,168.75
2023-02-21T12:43:26.574Z,168.75
2023-02-21T12:44:26.563Z,168.75
2023-02-21T12:45:27.391Z,163.12
2023-02-21T12:46:26.560Z,168.75
2023-02-21T12:47:26.583Z,174.38
2023-02-21T12:48:26.541Z,168.75
2023-02-21T12:49:27.428Z,174.38
2023-02-21T12:50:26.534Z,185.62
2023-02-21T12:51:26.504Z,185.62
2023-02-21T12:52:26.507Z,180.00
2023-02-21T12:53:26.489Z,180.00
2023-02-21T12:54:26.485Z,180.00
2023-02-21T12:55:26.463Z,174.38
2023-02-21T12:56:26.462Z,168.75
2023-02-21T12:57:26.454Z,163.12
2023-02-21T12:58:26.441Z,163.12
2023-02-21T12:59:26.451Z,157.50
2023-02-21T13:00:26.433Z,163.12